Главная страница
METAR-TAF:

METAR-TAF

Аэропорты :

Владикавказ, Россия

широта: 43-12-18N, долгота: 044-36-24E, высота над уровнем моря: 510 м

Текущие метеонаблюдения

Эта сводка был подготовлена 8 часа и 48 минут назад, в 17:00 UTC
Ветер 4 Узел от юго-восточный
Температура 18°C
Влажность 88%
Давление 1017 hPa
Видимость 10 км и более

METAR: URMO 141700Z 14002MPS 9999 NSC 18/16 Q1017 R09/010070 NOSIG RMK QFE719/0959

Время: 04:48 (01:48 UTC)

Прогноз

Эта сводка был подготовлена 11 часа и 48 минут назад, в 14:00 UTC
Прогноз действительный с 14-го 15 UTC до 14-го 24 UTC
Ветер 6 Узел от северо-восточный с порывами до 16 Узел
Видимость 10 км и более
Отдельные облака на высоте 3000 фута

TAF: URMO 141400Z 1415/1424 04003G08MPS 9999 SCT030

Метеонаблюдения и прогнозы для более 4000 аэропортов (сводки METAR и TAF).

Имеющиеся станции представлены на карте желтыми и красными точками.

Чтобы увидеть название станции, наведите на нее мышь.

Затем щелкните, чтобы увидеть метеонаблюдения и метеопрогнозы.

Управление картой: чтобы увеличить масштаб, щелкните зеленые кнопки с черным крестиком; чтобы уменьшить масштаб, щелкните зеленую кнопку с тире; для просмотра соседних карт щелкайте зеленые стрелки.


METAR-TAF: